createdAt,value
2019-04-30T00:00:06.224Z,9.00
2019-04-30T00:02:42.301Z,9.30
2019-04-30T00:05:17.361Z,8.97
2019-04-30T00:07:46.222Z,7.83
2019-04-30T00:10:17.012Z,7.90
2019-04-30T00:12:47.665Z,8.23
2019-04-30T00:15:19.571Z,8.43
2019-04-30T00:17:53.012Z,9.83
2019-04-30T00:20:22.761Z,9.57
2019-04-30T00:22:55.240Z,9.87
2019-04-30T00:25:28.502Z,10.00
2019-04-30T00:28:00.318Z,10.13
2019-04-30T00:30:30.651Z,9.77
2019-04-30T00:33:01.543Z,9.73
2019-04-30T00:35:32.241Z,10.17
2019-04-30T00:38:04.915Z,10.23
2019-04-30T00:40:35.671Z,9.37
2019-04-30T00:43:08.951Z,9.43
2019-04-30T00:45:40.036Z,9.70
2019-04-30T00:48:11.636Z,10.20
2019-04-30T00:50:42.298Z,10.47
2019-04-30T00:53:14.797Z,9.50
2019-04-30T00:55:48.404Z,8.63
2019-04-30T00:58:24.758Z,10.27
2019-04-30T01:01:08.244Z,10.13
2019-04-30T01:03:46.410Z,10.10
2019-04-30T01:06:17.238Z,9.03
2019-04-30T01:08:46.138Z,7.93
2019-04-30T01:11:16.902Z,8.80
2019-04-30T01:13:52.403Z,9.03
2019-04-30T01:16:23.611Z,9.47
2019-04-30T01:18:52.527Z,9.10
2019-04-30T01:21:23.423Z,11.63
2019-04-30T01:23:56.040Z,9.07
2019-04-30T01:26:27.767Z,9.90
2019-04-30T01:29:02.082Z,8.50
2019-04-30T01:31:37.252Z,7.60
2019-04-30T01:34:05.221Z,7.47
2019-04-30T01:36:36.542Z,7.40
2019-04-30T01:39:09.448Z,6.40
2019-04-30T01:41:40.643Z,6.43
2019-04-30T01:44:12.173Z,8.70
2019-04-30T01:46:43.197Z,6.03
2019-04-30T01:49:15.489Z,5.73
2019-04-30T01:51:48.554Z,6.57
2019-04-30T01:54:24.031Z,7.07
2019-04-30T01:57:10.937Z,6.57
2019-04-30T02:00:03.850Z,7.27
2019-04-30T02:02:36.153Z,6.73
2019-04-30T02:05:08.824Z,7.80
2019-04-30T02:07:40.429Z,7.43
2019-04-30T02:10:11.355Z,6.33
2019-04-30T02:12:42.027Z,7.33
2019-04-30T02:15:12.944Z,6.87
2019-04-30T02:17:43.767Z,6.53
2019-04-30T02:20:14.642Z,7.00
2019-04-30T02:22:45.382Z,6.73
2019-04-30T02:25:16.197Z,7.00
2019-04-30T02:27:48.828Z,7.53
2019-04-30T02:30:20.790Z,6.00
2019-04-30T02:32:52.607Z,6.60
2019-04-30T02:35:51.535Z,6.40
2019-04-30T02:38:31.726Z,8.23
2019-04-30T02:41:04.257Z,6.87
2019-04-30T02:43:36.915Z,6.60
2019-04-30T02:46:09.710Z,6.83
2019-04-30T02:48:43.241Z,7.03
2019-04-30T02:51:15.775Z,6.83
2019-04-30T02:54:15.480Z,7.30
2019-04-30T02:56:50.671Z,8.27
2019-04-30T02:59:21.470Z,10.30
2019-04-30T03:01:51.952Z,7.43
2019-04-30T03:04:22.410Z,7.43
2019-04-30T03:06:53.055Z,8.30
2019-04-30T03:09:23.414Z,7.53
2019-04-30T03:11:53.877Z,8.23
2019-04-30T03:14:24.665Z,7.87
2019-04-30T03:17:20.683Z,8.83
2019-04-30T03:20:03.119Z,10.57
2019-04-30T03:22:30.769Z,8.13
2019-04-30T03:25:01.273Z,7.97
2019-04-30T03:27:31.754Z,9.00
2019-04-30T03:30:02.205Z,9.80
2019-04-30T03:32:36.965Z,10.50
2019-04-30T03:35:04.957Z,12.63
2019-04-30T03:37:35.397Z,10.67
2019-04-30T03:40:06.903Z,11.90
2019-04-30T03:42:39.528Z,9.53
2019-04-30T03:45:10.329Z,10.30
2019-04-30T03:47:43.171Z,11.33
2019-04-30T03:50:13.285Z,11.47
2019-04-30T03:52:43.750Z,10.83
2019-04-30T03:55:14.202Z,10.50
2019-04-30T03:57:44.932Z,10.60
2019-04-30T04:00:20.334Z,11.50
2019-04-30T04:02:51.163Z,11.97
2019-04-30T04:05:31.044Z,11.77
2019-04-30T04:08:09.587Z,12.13
2019-04-30T04:11:00.555Z,12.30
2019-04-30T04:13:33.096Z,11.40
2019-04-30T04:16:03.368Z,11.60
2019-04-30T04:18:33.834Z,11.93
2019-04-30T04:21:11.375Z,12.63
2019-04-30T04:23:39.662Z,13.40
2019-04-30T04:26:09.493Z,15.47
2019-04-30T04:28:43.185Z,15.97
2019-04-30T04:31:12.451Z,13.63
2019-04-30T04:33:42.995Z,13.97
2019-04-30T04:36:13.563Z,14.13
2019-04-30T04:38:44.070Z,18.33
2019-04-30T04:41:14.667Z,13.67
2019-04-30T04:43:45.254Z,14.80
2019-04-30T04:46:15.721Z,13.13
2019-04-30T04:48:46.170Z,15.50
2019-04-30T04:51:33.240Z,14.80
2019-04-30T04:53:50.050Z,16.67
2019-04-30T04:56:20.901Z,15.93
2019-04-30T04:58:51.384Z,18.00
2019-04-30T05:01:22.221Z,16.73
2019-04-30T05:03:52.709Z,16.10
2019-04-30T05:06:23.253Z,15.93
2019-04-30T05:08:53.700Z,16.90
2019-04-30T05:11:24.273Z,18.50
2019-04-30T05:13:54.900Z,18.27
2019-04-30T05:16:25.355Z,17.20
2019-04-30T05:18:55.791Z,20.90
2019-04-30T05:21:26.657Z,17.23
2019-04-30T05:23:59.010Z,16.60
2019-04-30T05:26:29.505Z,18.30
2019-04-30T05:29:00.095Z,17.17
2019-04-30T05:31:30.685Z,21.37
2019-04-30T05:34:01.252Z,18.47
2019-04-30T05:36:31.832Z,19.00
2019-04-30T05:39:02.261Z,18.60
2019-04-30T05:41:32.819Z,19.33
2019-04-30T05:44:03.462Z,16.87
2019-04-30T05:46:34.195Z,19.77
2019-04-30T05:49:04.621Z,17.43
2019-04-30T05:51:35.076Z,15.67
2019-04-30T05:54:05.558Z,18.83
2019-04-30T05:56:44.953Z,20.13
2019-04-30T05:59:21.553Z,18.03
2019-04-30T06:01:52.180Z,18.70
2019-04-30T06:04:22.686Z,18.60
2019-04-30T06:06:53.429Z,19.37
2019-04-30T06:09:35.387Z,17.63
2019-04-30T06:12:30.835Z,18.73
2019-04-30T06:15:12.081Z,19.60
2019-04-30T06:17:43.282Z,16.17
2019-04-30T06:20:18.443Z,17.33
2019-04-30T06:22:49.672Z,18.30
2019-04-30T06:25:30.584Z,17.23
2019-04-30T06:27:52.385Z,17.93
2019-04-30T06:30:24.345Z,18.07
2019-04-30T06:32:55.246Z,18.40
2019-04-30T06:35:26.333Z,16.23
2019-04-30T06:37:58.793Z,15.80
2019-04-30T06:40:29.678Z,19.20
2019-04-30T06:43:01.900Z,17.43
2019-04-30T06:45:35.110Z,19.30
2019-04-30T06:48:08.737Z,18.57
2019-04-30T06:50:39.425Z,17.67
2019-04-30T06:53:10.008Z,17.77
2019-04-30T06:55:40.550Z,20.20
2019-04-30T06:58:15.090Z,21.93
2019-04-30T07:00:44.373Z,22.03
2019-04-30T07:03:14.980Z,19.43
2019-04-30T07:05:45.515Z,20.00
2019-04-30T07:08:46.750Z,17.60
2019-04-30T07:11:34.193Z,18.07
2019-04-30T07:14:04.779Z,18.47
2019-04-30T07:16:35.551Z,17.53
2019-04-30T07:19:06.257Z,16.07
2019-04-30T07:21:42.875Z,19.60
2019-04-30T07:24:09.499Z,17.70
2019-04-30T07:26:40.281Z,19.53
2019-04-30T07:29:10.857Z,17.13
2019-04-30T07:31:41.571Z,17.57
2019-04-30T07:34:12.082Z,17.30
2019-04-30T07:36:48.904Z,16.80
2019-04-30T07:39:15.148Z,15.67
2019-04-30T07:41:45.716Z,15.53
2019-04-30T07:44:30.170Z,15.90
2019-04-30T07:46:49.428Z,15.23
2019-04-30T07:49:20.658Z,14.47
2019-04-30T07:51:52.460Z,14.77
2019-04-30T07:54:23.701Z,15.10
2019-04-30T07:56:54.350Z,14.73
2019-04-30T07:59:24.875Z,14.33
2019-04-30T08:02:04.001Z,16.73
2019-04-30T08:04:45.629Z,14.53
2019-04-30T08:07:16.666Z,17.60
2019-04-30T08:09:48.891Z,18.37
2019-04-30T08:12:25.798Z,14.63
2019-04-30T08:14:51.578Z,15.97
2019-04-30T08:17:22.783Z,16.47
2019-04-30T08:19:53.355Z,19.53
2019-04-30T08:22:23.826Z,20.63
2019-04-30T08:24:54.290Z,19.90
2019-04-30T08:27:24.908Z,18.13
2019-04-30T08:29:55.613Z,21.23
2019-04-30T08:32:26.385Z,19.80
2019-04-30T08:34:56.833Z,19.50
2019-04-30T08:37:28.832Z,19.47
2019-04-30T08:40:01.886Z,20.93
2019-04-30T08:42:34.276Z,22.00
2019-04-30T08:45:04.930Z,21.93
2019-04-30T08:47:35.433Z,23.07
2019-04-30T08:50:06.885Z,23.17
2019-04-30T08:52:39.378Z,22.43
2019-04-30T08:55:16.138Z,27.47
2019-04-30T08:57:42.531Z,19.70
2019-04-30T09:00:15.132Z,20.73
2019-04-30T09:02:45.806Z,20.83
2019-04-30T09:05:30.466Z,21.07
2019-04-30T09:08:00.601Z,21.63
2019-04-30T09:10:31.281Z,21.17
2019-04-30T09:13:01.851Z,19.77
2019-04-30T09:15:32.458Z,20.13
2019-04-30T09:18:06.010Z,18.90
2019-04-30T09:20:35.260Z,19.47
2019-04-30T09:23:05.771Z,20.10
2019-04-30T09:25:36.256Z,23.10
2019-04-30T09:28:08.559Z,23.13
2019-04-30T09:30:39.198Z,23.70
2019-04-30T09:33:11.195Z,24.93
2019-04-30T09:35:41.837Z,25.60
2019-04-30T09:38:12.345Z,25.20
2019-04-30T09:40:42.816Z,25.77
2019-04-30T09:43:13.297Z,24.07
2019-04-30T09:45:44.046Z,27.27
2019-04-30T09:48:14.497Z,28.23
2019-04-30T09:50:45.198Z,27.67
2019-04-30T09:53:15.932Z,27.33
2019-04-30T09:55:46.461Z,28.53
2019-04-30T09:58:20.417Z,26.43
2019-04-30T10:00:50.351Z,21.00
2019-04-30T10:03:22.131Z,13.90
2019-04-30T10:05:52.940Z,14.83
2019-04-30T10:08:23.744Z,17.50
2019-04-30T10:11:11.757Z,12.83
2019-04-30T10:13:42.472Z,12.33
2019-04-30T10:16:32.283Z,13.20
2019-04-30T10:19:02.838Z,12.47
2019-04-30T10:21:33.413Z,11.00
2019-04-30T10:24:14.871Z,13.23
2019-04-30T10:26:36.639Z,13.30
2019-04-30T10:29:07.686Z,11.70
2019-04-30T10:31:39.054Z,10.87
2019-04-30T10:34:09.759Z,12.83
2019-04-30T10:36:41.492Z,12.10
2019-04-30T10:39:12.351Z,10.60
2019-04-30T10:41:42.972Z,12.47
2019-04-30T10:44:13.438Z,10.37
2019-04-30T10:46:43.911Z,11.63
2019-04-30T10:49:14.520Z,10.07
2019-04-30T10:51:45.152Z,11.70
2019-04-30T10:54:24.046Z,11.47
2019-04-30T10:56:49.009Z,11.93
2019-04-30T10:59:20.196Z,11.37
2019-04-30T11:01:50.343Z,10.83
2019-04-30T11:04:21.450Z,11.13
2019-04-30T11:06:51.917Z,9.17
2019-04-30T11:09:22.988Z,10.63
2019-04-30T11:11:53.464Z,11.57
2019-04-30T11:14:23.903Z,7.97
2019-04-30T11:16:54.675Z,10.77
2019-04-30T11:19:25.439Z,8.90
2019-04-30T11:21:56.234Z,6.90
2019-04-30T11:24:36.651Z,9.50
2019-04-30T11:27:00.278Z,7.50
2019-04-30T11:29:31.438Z,9.33
2019-04-30T11:32:13.710Z,11.27
2019-04-30T11:34:44.401Z,9.77
2019-04-30T11:37:14.845Z,9.03
2019-04-30T11:39:45.399Z,8.90
2019-04-30T11:42:15.901Z,9.73
2019-04-30T11:44:46.314Z,10.73
2019-04-30T11:47:36.411Z,12.37
2019-04-30T11:50:16.135Z,13.47
2019-04-30T11:52:46.726Z,11.07
2019-04-30T11:55:19.330Z,14.23
2019-04-30T11:57:49.902Z,12.23
2019-04-30T12:00:29.558Z,15.17
2019-04-30T12:03:00.002Z,11.43
2019-04-30T12:05:30.506Z,12.53
2019-04-30T12:08:13.705Z,11.77
2019-04-30T12:10:49.296Z,11.53
2019-04-30T12:13:27.037Z,11.90
2019-04-30T12:15:58.930Z,9.80
2019-04-30T12:18:29.606Z,10.40
2019-04-30T12:21:00.147Z,9.67
2019-04-30T12:23:30.598Z,12.97
2019-04-30T12:26:02.815Z,10.87
2019-04-30T12:28:33.399Z,9.23
2019-04-30T12:31:05.915Z,11.07
2019-04-30T12:33:36.051Z,10.47
2019-04-30T12:36:08.913Z,10.93
2019-04-30T12:38:39.525Z,11.23
2019-04-30T12:41:09.966Z,12.03
2019-04-30T12:43:40.608Z,11.60
2019-04-30T12:46:11.080Z,10.77
2019-04-30T12:49:15.482Z,10.67
2019-04-30T12:51:54.019Z,12.10
2019-04-30T12:54:36.133Z,9.20
2019-04-30T12:57:55.501Z,11.53
2019-04-30T13:00:19.478Z,14.53
2019-04-30T13:02:50.059Z,11.27
2019-04-30T13:05:20.612Z,10.33
2019-04-30T13:07:51.802Z,13.27
2019-04-30T13:10:24.274Z,10.57
2019-04-30T13:12:55.921Z,14.93
2019-04-30T13:15:26.494Z,10.00
2019-04-30T13:17:58.543Z,10.80
2019-04-30T13:20:29.438Z,7.80
2019-04-30T13:23:00.046Z,14.53
2019-04-30T13:25:35.405Z,10.37
2019-04-30T13:28:07.649Z,11.60
2019-04-30T13:30:41.625Z,11.13
2019-04-30T13:33:23.680Z,10.23
2019-04-30T13:35:54.187Z,9.03
2019-04-30T13:38:47.416Z,9.00
2019-04-30T13:41:16.262Z,11.73
2019-04-30T13:44:01.371Z,10.90
2019-04-30T13:46:31.978Z,9.40
2019-04-30T13:49:02.429Z,9.30
2019-04-30T13:51:33.018Z,11.43
2019-04-30T13:54:03.487Z,12.03
2019-04-30T13:56:39.676Z,10.60
2019-04-30T13:59:10.333Z,11.10
2019-04-30T14:01:41.010Z,12.73
2019-04-30T14:04:21.166Z,11.90
2019-04-30T14:07:21.965Z,10.83
2019-04-30T14:09:52.625Z,11.73
2019-04-30T14:12:23.053Z,11.90
2019-04-30T14:14:53.473Z,10.93
2019-04-30T14:17:24.103Z,12.43
2019-04-30T14:19:54.558Z,12.93
2019-04-30T14:22:24.983Z,11.03
2019-04-30T14:24:58.302Z,11.43
2019-04-30T14:27:28.784Z,14.33
2019-04-30T14:29:59.466Z,10.33
2019-04-30T14:32:29.862Z,11.60
2019-04-30T14:35:00.444Z,12.10
2019-04-30T14:37:31.861Z,13.63
2019-04-30T14:40:03.347Z,13.63
2019-04-30T14:42:36.863Z,13.57
2019-04-30T14:45:18.473Z,12.53
2019-04-30T14:48:07.925Z,11.80
2019-04-30T14:50:39.172Z,12.27
2019-04-30T14:53:31.417Z,13.13
2019-04-30T14:56:12.992Z,11.97
2019-04-30T14:59:00.895Z,15.50
2019-04-30T15:01:51.720Z,13.40
2019-04-30T15:04:22.563Z,10.60
2019-04-30T15:06:53.038Z,11.20
2019-04-30T15:09:23.556Z,12.10
2019-04-30T15:11:54.094Z,12.50
2019-04-30T15:14:24.591Z,12.20
2019-04-30T15:16:55.073Z,12.13
2019-04-30T15:19:25.882Z,14.70
2019-04-30T15:21:56.334Z,10.03
2019-04-30T15:24:44.761Z,10.57
2019-04-30T15:27:15.290Z,11.13
2019-04-30T15:29:46.027Z,13.10
2019-04-30T15:32:18.497Z,9.63
2019-04-30T15:34:49.096Z,11.17
2019-04-30T15:37:23.631Z,11.77
2019-04-30T15:39:52.388Z,13.10
2019-04-30T15:42:24.068Z,10.43
2019-04-30T15:44:54.535Z,12.70
2019-04-30T15:47:24.989Z,12.20
2019-04-30T15:49:55.827Z,12.07
2019-04-30T15:52:26.386Z,12.07
2019-04-30T15:54:56.891Z,10.73
2019-04-30T15:57:29.418Z,11.83
2019-04-30T15:59:59.824Z,10.17
2019-04-30T16:02:53.544Z,9.93
2019-04-30T16:05:34.947Z,11.93
2019-04-30T16:08:33.339Z,11.83
2019-04-30T16:11:17.146Z,10.23
2019-04-30T16:14:18.781Z,12.53
2019-04-30T16:17:01.274Z,11.23
2019-04-30T16:19:51.051Z,10.83
2019-04-30T16:22:21.511Z,14.67
2019-04-30T16:24:54.574Z,12.23
2019-04-30T16:27:24.161Z,14.87
2019-04-30T16:29:54.678Z,12.23
2019-04-30T16:32:25.204Z,13.50
2019-04-30T16:34:55.703Z,11.87
2019-04-30T16:37:26.325Z,11.43
2019-04-30T16:39:56.793Z,13.57
2019-04-30T16:42:29.040Z,12.47
2019-04-30T16:45:00.829Z,10.50
2019-04-30T16:47:31.404Z,10.47
2019-04-30T16:50:01.843Z,13.13
2019-04-30T16:52:32.587Z,11.87
2019-04-30T16:55:03.123Z,10.97
2019-04-30T16:57:33.709Z,10.93
2019-04-30T17:00:05.125Z,15.30
2019-04-30T17:02:35.750Z,11.77
2019-04-30T17:05:15.103Z,13.80
2019-04-30T17:08:03.340Z,13.63
2019-04-30T17:10:50.478Z,12.57
2019-04-30T17:13:36.222Z,12.53
2019-04-30T17:16:11.315Z,11.10
2019-04-30T17:18:42.646Z,8.43
2019-04-30T17:21:13.280Z,9.13
2019-04-30T17:23:43.871Z,8.77
2019-04-30T17:26:14.395Z,8.17
2019-04-30T17:28:44.863Z,7.73
2019-04-30T17:31:15.446Z,7.73
2019-04-30T17:33:45.953Z,7.27
2019-04-30T17:36:18.672Z,8.53
2019-04-30T17:38:48.606Z,7.70
2019-04-30T17:41:19.160Z,7.43
2019-04-30T17:43:49.704Z,8.80
2019-04-30T17:46:20.309Z,7.43
2019-04-30T17:48:50.824Z,8.67
2019-04-30T17:51:22.788Z,8.43
2019-04-30T17:54:11.315Z,6.93
2019-04-30T17:56:42.183Z,7.13
2019-04-30T17:59:13.171Z,9.07
2019-04-30T18:01:49.499Z,6.70
2019-04-30T18:04:22.119Z,7.30
2019-04-30T18:06:51.921Z,7.93
2019-04-30T18:09:22.437Z,11.27
2019-04-30T18:11:52.852Z,10.77
2019-04-30T18:14:23.415Z,7.47
2019-04-30T18:16:53.881Z,5.97
2019-04-30T18:19:31.250Z,6.60
2019-04-30T18:22:09.570Z,6.30
2019-04-30T18:24:51.851Z,6.80
2019-04-30T18:27:25.589Z,6.67
2019-04-30T18:29:56.094Z,9.57
2019-04-30T18:32:29.642Z,7.93
2019-04-30T18:35:00.294Z,6.50
2019-04-30T18:37:30.797Z,8.37
2019-04-30T18:40:01.661Z,6.00
2019-04-30T18:42:32.203Z,6.40
2019-04-30T18:45:02.651Z,6.93
2019-04-30T18:47:33.343Z,7.17
2019-04-30T18:50:03.997Z,6.63
2019-04-30T18:52:34.520Z,6.00
2019-04-30T18:55:05.369Z,7.97
2019-04-30T18:57:36.007Z,7.50
2019-04-30T19:00:09.930Z,7.13
2019-04-30T19:02:40.903Z,7.97
2019-04-30T19:05:17.537Z,8.33
2019-04-30T19:07:53.805Z,6.47
2019-04-30T19:10:46.307Z,10.07
2019-04-30T19:13:25.363Z,8.60
2019-04-30T19:16:22.449Z,8.73
2019-04-30T19:18:55.331Z,8.03
2019-04-30T19:21:25.873Z,9.97
2019-04-30T19:23:56.431Z,11.10
2019-04-30T19:26:29.156Z,9.57
2019-04-30T19:28:59.604Z,7.13
2019-04-30T19:31:30.082Z,8.23
2019-04-30T19:34:00.552Z,10.57
2019-04-30T19:36:37.333Z,10.33
2019-04-30T19:39:03.586Z,10.77
2019-04-30T19:41:34.111Z,9.07
2019-04-30T19:44:05.334Z,7.73
2019-04-30T19:46:36.110Z,11.03
2019-04-30T19:49:06.851Z,13.40
2019-04-30T19:51:37.310Z,16.83
2019-04-30T19:54:08.735Z,11.27
2019-04-30T19:56:39.569Z,13.27
2019-04-30T19:59:10.145Z,12.30
2019-04-30T20:01:40.767Z,14.00
2019-04-30T20:04:11.446Z,14.70
2019-04-30T20:06:41.970Z,15.93
2019-04-30T20:09:12.544Z,19.57
2019-04-30T20:11:43.053Z,19.03
2019-04-30T20:14:13.521Z,19.67
2019-04-30T20:16:44.145Z,19.80
2019-04-30T20:19:14.810Z,18.80
2019-04-30T20:21:50.735Z,20.90
2019-04-30T20:24:19.092Z,21.47
2019-04-30T20:26:51.634Z,22.53
2019-04-30T20:29:21.984Z,21.53
2019-04-30T20:31:52.451Z,25.10
2019-04-30T20:34:23.142Z,24.53
2019-04-30T20:36:53.670Z,24.80
2019-04-30T20:39:30.121Z,26.43
2019-04-30T20:42:00.605Z,26.70
2019-04-30T20:44:31.224Z,24.97
2019-04-30T20:47:01.675Z,27.93
2019-04-30T20:49:32.142Z,25.77
2019-04-30T20:52:02.636Z,25.20
2019-04-30T20:54:33.147Z,27.50
2019-04-30T20:57:03.717Z,27.67
2019-04-30T20:59:34.183Z,27.03
2019-04-30T21:02:04.708Z,27.93
2019-04-30T21:04:35.840Z,26.73
2019-04-30T21:07:06.374Z,29.97
2019-04-30T21:09:36.867Z,28.57
2019-04-30T21:12:08.983Z,27.93
2019-04-30T21:14:40.610Z,27.93
2019-04-30T21:17:11.553Z,29.17
2019-04-30T21:19:41.951Z,27.50
2019-04-30T21:22:12.577Z,28.43
2019-04-30T21:24:43.016Z,29.27
2019-04-30T21:27:13.462Z,28.50
2019-04-30T21:29:44.062Z,28.37
2019-04-30T21:32:23.020Z,27.67
2019-04-30T21:35:18.269Z,30.67
2019-04-30T21:37:48.855Z,28.40
2019-04-30T21:40:19.667Z,25.87
2019-04-30T21:42:50.324Z,27.70
2019-04-30T21:45:20.868Z,25.27
2019-04-30T21:47:56.526Z,26.80
2019-04-30T21:50:24.120Z,25.17
2019-04-30T21:52:54.697Z,23.37
2019-04-30T21:55:25.109Z,25.10
2019-04-30T21:57:55.593Z,24.27
2019-04-30T22:00:44.143Z,26.60
2019-04-30T22:03:14.767Z,26.07
2019-04-30T22:05:45.285Z,26.87
2019-04-30T22:08:15.817Z,27.43
2019-04-30T22:10:46.337Z,26.00
2019-04-30T22:13:18.520Z,25.13
2019-04-30T22:15:49.140Z,24.43
2019-04-30T22:18:19.578Z,24.57
2019-04-30T22:20:50.030Z,25.87
2019-04-30T22:23:20.666Z,25.77
2019-04-30T22:25:51.141Z,25.07
2019-04-30T22:28:21.589Z,24.77
2019-04-30T22:30:52.254Z,24.40
2019-04-30T22:33:22.773Z,25.30
2019-04-30T22:36:28.992Z,24.53
2019-04-30T22:39:17.258Z,25.63
2019-04-30T22:41:47.707Z,26.37
2019-04-30T22:44:18.150Z,24.43
2019-04-30T22:46:49.245Z,25.80
2019-04-30T22:49:19.766Z,24.67
2019-04-30T22:51:50.389Z,28.70
2019-04-30T22:54:20.863Z,27.20
2019-04-30T22:56:51.280Z,26.53
2019-04-30T22:59:21.839Z,26.37
2019-04-30T23:02:04.805Z,26.73
2019-04-30T23:04:40.083Z,26.97
2019-04-30T23:07:10.526Z,25.83
2019-04-30T23:09:41.115Z,28.23
2019-04-30T23:12:11.566Z,27.00
2019-04-30T23:14:42.287Z,27.37
2019-04-30T23:17:14.326Z,27.47
2019-04-30T23:19:49.413Z,26.43
2019-04-30T23:22:17.136Z,28.70
2019-04-30T23:24:47.578Z,27.10
2019-04-30T23:27:18.133Z,26.97
2019-04-30T23:30:02.843Z,27.13
2019-04-30T23:32:23.576Z,32.27
2019-04-30T23:34:54.250Z,31.70
2019-04-30T23:37:24.727Z,28.73
2019-04-30T23:39:55.317Z,32.50
2019-04-30T23:42:25.840Z,33.87
2019-04-30T23:45:15.358Z,33.87
2019-04-30T23:47:45.993Z,34.47
2019-04-30T23:50:16.626Z,36.97
2019-04-30T23:52:47.096Z,32.83
2019-04-30T23:55:17.556Z,32.57
2019-04-30T23:57:48.152Z,37.63
